Boas Novas, Brazil
Current Conditions -  °F | °C
As of 8:00 PM on Saturday 25 Oct 2014 (Local Time) from SBRF Reporting Station
Scattered Clouds Scattered Clouds  
Wind Chill: 79°   Ceiling: Unl
Heat Index: 82°   Visibility: 6mi
Dew Point: 72°   Wind: 7mph
Humidity: 78%   Direction: 120°ESE
Pressure: 29.94"   Gusts: NA
Location:  8.38°S, 35.87°W
Report Text: SBRF 252300Z 12006KT 9999 SCT023 26/22 Q1014
Loading
Personal Weather Stations






























Interactive Weather Map
Tropical Storm Tracking
New forecast layout! Learn more

10-Day Weather Forecast

Advertisements
Track Severe Weather on mobile